Time;durP1;ratioP1;P1;durP2;ratioP2;P2;SDS_P1;SDS_P2;PMS_P1;PMS_P2;Temp;Humidity;BMP_temperature;BMP_pressure;BME280_temperature;BME280_humidity;BME280_pressure;Samples;Min_cycle;Max_cycle;Signal;HPM_P1;HPM_P2
2022/01/16 00:01:34;;;;;;;6.40;2.30;;;2.30;87.70;;;;;;1905343;75;21079;-42
2022/01/16 00:04:09;;;;;;;1.85;1.50;;;2.30;87.60;;;;;;1903870;74;21040;-43
2022/01/16 00:06:46;;;;;;;1.27;1.17;;;2.30;87.70;;;;;;1905290;75;21038;-42
2022/01/16 00:09:12;;;;;;;5.70;2.45;;;2.30;87.60;;;;;;1904536;74;21023;-42
2022/01/16 00:11:42;;;;;;;7.22;2.87;;;2.20;87.40;;;;;;1905304;75;21108;-43
2022/01/16 00:14:12;;;;;;;4.90;2.65;;;2.20;87.40;;;;;;1905358;75;21085;-42
2022/01/16 00:16:41;;;;;;;2.70;1.77;;;2.20;87.20;;;;;;1905255;75;21110;-42
2022/01/16 00:19:10;;;;;;;3.37;2.10;;;2.20;87.30;;;;;;1905239;75;21000;-42
2022/01/16 00:21:42;;;;;;;2.08;1.45;;;2.20;87.30;;;;;;1905316;75;21027;-42
2022/01/16 00:24:12;;;;;;;3.55;2.22;;;2.30;87.30;;;;;;1905513;75;21027;-44
2022/01/16 00:26:41;;;;;;;3.02;2.30;;;2.20;87.50;;;;;;1905438;74;21093;-43
2022/01/16 00:29:12;;;;;;;2.35;1.65;;;2.20;87.40;;;;;;1905436;75;21019;-43
2022/01/16 00:31:42;;;;;;;5.28;1.92;;;2.20;87.30;;;;;;1905485;74;21008;-43
2022/01/16 00:34:12;;;;;;;3.60;1.60;;;2.20;87.40;;;;;;1905398;74;21094;-43
2022/01/16 00:36:42;;;;;;;1.95;1.75;;;2.10;87.40;;;;;;1905375;75;21019;-43
2022/01/16 00:39:11;;;;;;;3.50;1.62;;;2.10;88.10;;;;;;1905409;75;21016;-42
2022/01/16 00:41:40;;;;;;;2.42;2.02;;;2.10;87.60;;;;;;1905360;75;21016;-43
2022/01/16 00:44:10;;;;;;;5.50;2.42;;;2.10;87.60;;;;;;1905352;75;21090;-43
2022/01/16 00:46:39;;;;;;;4.72;2.00;;;2.10;87.40;;;;;;1905422;75;21136;-43
2022/01/16 00:49:08;;;;;;;2.40;1.77;;;2.10;87.40;;;;;;1905346;75;21141;-42
2022/01/16 00:51:38;;;;;;;4.42;2.42;;;2.10;87.20;;;;;;1905550;74;21044;-42
2022/01/16 00:54:07;;;;;;;3.77;2.08;;;2.10;87.50;;;;;;1905595;75;21019;-42
2022/01/16 00:56:37;;;;;;;5.03;1.45;;;2.20;87.50;;;;;;1905351;75;21019;-43
2022/01/16 00:59:06;;;;;;;2.30;1.72;;;2.20;87.50;;;;;;1905413;75;20999;-42
2022/01/16 01:01:35;;;;;;;2.17;1.47;;;2.20;87.40;;;;;;1905488;75;21024;-42
2022/01/16 01:04:05;;;;;;;3.40;1.62;;;2.20;87.20;;;;;;1905348;75;21024;-42
2022/01/16 01:06:34;;;;;;;7.92;2.35;;;2.20;87.10;;;;;;1905460;74;21023;-42
2022/01/16 01:09:04;;;;;;;3.27;1.87;;;2.20;87.10;;;;;;1905469;75;21019;-43
2022/01/16 01:11:37;;;;;;;6.53;3.00;;;2.30;86.90;;;;;;1905469;75;21028;-43
2022/01/16 01:16:50;;;;;;;2.67;1.87;;;2.20;86.70;;;;;;1905374;74;21016;-42
2022/01/16 01:19:06;;;;;;;1.72;1.40;;;2.20;86.60;;;;;;1902600;74;21097;-42
2022/01/16 01:21:36;;;;;;;3.05;1.80;;;2.20;86.40;;;;;;1905474;75;21047;-43
2022/01/16 01:24:06;;;;;;;3.67;2.15;;;2.20;86.40;;;;;;1905481;75;21030;-43
2022/01/16 01:26:43;;;;;;;2.12;1.90;;;2.20;86.50;;;;;;1905474;74;21012;-43
2022/01/16 01:29:06;;;;;;;5.08;2.17;;;2.20;86.50;;;;;;1904847;74;21043;-42
2022/01/16 01:31:35;;;;;;;5.87;2.50;;;2.20;86.50;;;;;;1905480;74;20999;-43
2022/01/16 01:34:04;;;;;;;2.77;2.20;;;2.20;86.50;;;;;;1905391;75;21039;-43
2022/01/16 01:36:34;;;;;;;7.47;2.58;;;2.10;86.60;;;;;;1905574;75;21011;-42
2022/01/16 01:39:03;;;;;;;4.00;2.40;;;2.10;86.50;;;;;;1905465;75;21105;-42
2022/01/16 01:41:33;;;;;;;5.12;3.05;;;2.10;86.60;;;;;;1905460;75;21000;-43
2022/01/16 01:52:25;;;;;;;8.85;3.72;;;2.10;86.80;;;;;;1924984;74;21126;-42
2022/01/16 01:54:54;;;;;;;9.05;3.33;;;2.20;86.90;;;;;;1924901;74;21023;-44
2022/01/16 01:57:24;;;;;;;5.65;3.47;;;2.20;87.10;;;;;;1924841;74;21066;-42
2022/01/16 01:59:53;;;;;;;2.50;2.30;;;2.20;86.90;;;;;;1924715;74;20999;-43
2022/01/16 02:02:25;;;;;;;6.30;3.05;;;2.20;86.80;;;;;;1924722;74;20995;-44
2022/01/16 02:04:53;;;;;;;3.87;2.92;;;2.20;86.80;;;;;;1924759;74;21503;-43
2022/01/16 02:07:22;;;;;;;4.62;2.67;;;2.30;86.90;;;;;;1924838;74;21023;-43
2022/01/16 02:09:52;;;;;;;3.25;2.42;;;2.30;87.00;;;;;;1924808;74;21011;-43
2022/01/16 02:12:22;;;;;;;5.80;2.75;;;2.30;87.30;;;;;;1924851;74;21072;-43
2022/01/16 02:15:18;;;;;;;4.65;2.70;;;2.40;87.00;;;;;;1924894;74;20999;-43
2022/01/16 02:29:01;;;;;;;4.75;2.60;;;2.40;86.60;;;;;;1924861;74;21112;-43
2022/01/16 02:31:18;;;;;;;4.90;2.83;;;2.40;86.60;;;;;;1921898;74;21096;-43
2022/01/16 02:36:31;;;;;;;10.48;3.83;;;2.40;86.60;;;;;;1924845;74;21019;-42
2022/01/16 02:39:10;;;;;;;2.70;2.50;;;2.40;86.50;;;;;;1924710;74;21168;-42
2022/01/16 02:41:38;;;;;;;4.85;2.95;;;2.40;86.20;;;;;;1924886;74;21100;-43
2022/01/16 02:44:20;;;;;;;6.25;2.98;;;2.30;86.20;;;;;;1924764;74;21023;-44
2022/01/16 02:46:44;;;;;;;4.20;3.30;;;2.30;86.60;;;;;;1919382;74;21059;-44
2022/01/16 02:49:24;;;;;;;3.90;3.10;;;2.30;86.70;;;;;;1905301;75;21047;-43
2022/01/16 02:51:59;;;;;;;3.67;2.75;;;2.40;86.60;;;;;;1905452;75;21039;-42
2022/01/16 02:54:34;;;;;;;8.58;2.45;;;2.40;86.80;;;;;;1905460;75;21039;-43
2022/01/16 02:57:00;;;;;;;6.10;3.10;;;2.40;87.30;;;;;;1905147;74;21508;-43
2022/01/16 02:59:29;;;;;;;7.08;3.17;;;2.40;86.50;;;;;;1905340;74;21094;-40
2022/01/16 03:01:59;;;;;;;5.55;2.85;;;2.40;86.40;;;;;;1905356;74;21019;-42
2022/01/16 03:04:29;;;;;;;5.15;3.30;;;2.40;86.50;;;;;;1905297;75;21094;-43
2022/01/16 03:07:01;;;;;;;3.62;2.80;;;2.40;86.60;;;;;;1905300;75;21023;-42
2022/01/16 03:09:45;;;;;;;3.05;2.30;;;2.40;86.70;;;;;;1905421;75;21090;-43
2022/01/16 03:12:02;;;;;;;4.62;3.12;;;2.40;87.40;;;;;;1904103;74;21047;-44
2022/01/16 03:14:31;;;;;;;8.50;2.25;;;2.30;86.80;;;;;;1905381;75;21027;-42
2022/01/16 03:17:00;;;;;;;3.47;1.67;;;2.30;87.60;;;;;;1905450;75;21043;-41
2022/01/16 03:22:17;;;;;;;4.95;2.35;;;2.30;88.60;;;;;;1905366;75;21105;-42
2022/01/16 03:24:47;;;;;;;4.65;2.17;;;2.20;88.50;;;;;;1905282;75;21015;-42
2022/01/16 03:27:19;;;;;;;4.05;3.05;;;2.20;88.30;;;;;;1905377;75;21027;-42
2022/01/16 03:29:52;;;;;;;8.35;3.30;;;2.20;88.60;;;;;;1905426;75;21032;-43
2022/01/16 03:32:22;;;;;;;9.00;4.08;;;2.20;88.90;;;;;;1905438;75;21019;-42
2022/01/16 03:34:52;;;;;;;4.22;3.05;;;2.10;88.80;;;;;;1905271;75;21027;-42
2022/01/16 03:37:21;;;;;;;6.67;3.92;;;2.20;88.90;;;;;;1905306;75;21011;-43
2022/01/16 03:39:51;;;;;;;5.53;3.27;;;2.10;88.90;;;;;;1905339;75;21020;-42
2022/01/16 03:42:26;;;;;;;7.42;3.30;;;2.20;88.70;;;;;;1905372;74;21015;-42
2022/01/16 03:44:51;;;;;;;5.37;3.30;;;2.20;88.80;;;;;;1905070;74;21097;-43
2022/01/16 03:47:21;;;;;;;6.45;3.58;;;2.20;88.30;;;;;;1905262;75;20991;-43
2022/01/16 03:49:50;;;;;;;5.83;3.15;;;2.20;88.30;;;;;;1919284;74;21093;-42
2022/01/16 03:52:20;;;;;;;6.78;3.08;;;2.20;88.50;;;;;;1924634;74;21038;-41
2022/01/16 03:54:49;;;;;;;7.10;3.67;;;2.30;88.60;;;;;;1924614;74;21077;-43
2022/01/16 03:57:19;;;;;;;8.95;3.75;;;2.30;89.10;;;;;;1924922;74;21034;-42
2022/01/16 03:59:48;;;;;;;4.47;3.33;;;2.30;88.20;;;;;;1924798;74;21080;-42
2022/01/16 04:02:17;;;;;;;8.85;3.92;;;2.30;88.40;;;;;;1924865;74;20999;-42
2022/01/16 04:04:47;;;;;;;7.72;3.95;;;2.30;88.20;;;;;;1924882;74;21031;-43
2022/01/16 04:07:24;;;;;;;4.65;3.47;;;2.40;88.20;;;;;;1924978;74;21018;-43
2022/01/16 04:09:47;;;;;;;6.67;3.52;;;2.40;88.20;;;;;;1924176;74;21466;-42
2022/01/16 04:12:21;;;;;;;7.00;4.72;;;2.40;88.30;;;;;;1925009;74;21014;-44
2022/01/16 04:17:20;;;;;;;8.95;4.17;;;2.40;88.10;;;;;;1925128;74;21096;-43
2022/01/16 04:19:50;;;;;;;5.53;2.75;;;2.40;88.20;;;;;;1924841;74;21437;-43
2022/01/16 04:22:20;;;;;;;6.72;3.83;;;2.40;88.20;;;;;;1924753;74;20990;-42
2022/01/16 04:24:49;;;;;;;7.35;3.80;;;2.40;87.90;;;;;;1924702;74;21049;-43
2022/01/16 04:27:19;;;;;;;10.98;3.58;;;2.40;88.40;;;;;;1924804;74;21539;-43
2022/01/16 04:29:48;;;;;;;5.17;3.27;;;2.40;88.10;;;;;;1924719;74;21047;-42
2022/01/16 04:32:17;;;;;;;8.70;3.42;;;2.40;88.10;;;;;;1924707;74;21086;-43
2022/01/16 04:34:46;;;;;;;3.77;2.60;;;2.40;88.10;;;;;;1924825;74;21096;-43
2022/01/16 04:37:15;;;;;;;5.78;2.65;;;2.40;88.20;;;;;;1924854;74;21084;-42
2022/01/16 04:39:50;;;;;;;7.20;2.40;;;2.40;88.10;;;;;;1924812;74;21022;-42
2022/01/16 04:45:03;;;;;;;5.10;2.58;;;2.30;88.00;;;;;;1924915;74;21084;-44
2022/01/16 04:47:33;;;;;;;3.90;2.20;;;2.30;88.40;;;;;;1924942;74;21026;-43
2022/01/16 04:50:02;;;;;;;3.80;2.85;;;2.30;88.70;;;;;;1924807;74;21039;-43
2022/01/16 04:52:32;;;;;;;3.17;2.37;;;2.30;88.70;;;;;;1924853;74;21019;-43
2022/01/16 04:55:02;;;;;;;5.45;4.35;;;2.30;88.60;;;;;;1924912;74;21027;-42
2022/01/16 04:57:31;;;;;;;4.85;2.95;;;2.30;88.50;;;;;;1924946;74;21030;-43
2022/01/16 05:00:00;;;;;;;3.85;2.33;;;2.30;88.50;;;;;;1924843;74;21520;-42
2022/01/16 05:02:30;;;;;;;7.65;3.83;;;2.20;88.60;;;;;;1924763;74;21120;-42
2022/01/16 05:04:59;;;;;;;8.25;3.37;;;2.20;88.50;;;;;;1924743;74;21441;-43
2022/01/16 05:07:28;;;;;;;5.50;3.50;;;2.30;88.40;;;;;;1924727;74;21026;-42
2022/01/16 05:09:58;;;;;;;3.87;2.58;;;2.20;88.50;;;;;;1924652;74;21035;-42
2022/01/16 05:12:33;;;;;;;7.40;4.20;;;2.20;88.30;;;;;;1924609;74;21089;-42
2022/01/16 05:17:45;;;;;;;4.75;3.70;;;2.20;88.50;;;;;;1924558;74;21010;-42
2022/01/16 05:20:15;;;;;;;3.45;1.82;;;2.20;88.50;;;;;;1924719;74;21085;-43
2022/01/16 05:22:44;;;;;;;4.58;2.95;;;2.20;88.70;;;;;;1924827;74;21092;-43
2022/01/16 05:25:16;;;;;;;3.20;2.77;;;2.20;88.60;;;;;;1924742;74;21066;-43
2022/01/16 05:27:45;;;;;;;4.47;2.80;;;2.20;88.60;;;;;;1924860;74;21507;-43
2022/01/16 05:30:14;;;;;;;4.65;2.90;;;2.20;88.50;;;;;;1924769;74;21023;-44
2022/01/16 05:32:44;;;;;;;4.30;2.80;;;2.20;88.50;;;;;;1924898;74;21034;-43
2022/01/16 05:35:13;;;;;;;4.08;2.83;;;2.30;88.40;;;;;;1924884;74;21105;-43
2022/01/16 05:37:42;;;;;;;3.92;2.55;;;2.30;88.30;;;;;;1924782;74;21022;-42
2022/01/16 05:40:12;;;;;;;3.30;2.87;;;2.30;88.10;;;;;;1924787;74;21033;-44
2022/01/16 05:42:42;;;;;;;3.25;2.90;;;2.20;88.00;;;;;;1924842;74;21030;-41
2022/01/16 05:45:11;;;;;;;4.72;2.77;;;2.30;87.90;;;;;;1924728;74;21074;-42
2022/01/16 05:47:40;;;;;;;5.28;3.47;;;2.30;88.00;;;;;;1924912;74;21090;-43
2022/01/16 05:50:10;;;;;;;6.60;3.27;;;2.30;87.90;;;;;;1924741;74;21120;-43
2022/01/16 05:52:40;;;;;;;4.15;2.90;;;2.30;87.90;;;;;;1924787;74;21129;-43
2022/01/16 05:55:10;;;;;;;6.60;3.75;;;2.30;87.80;;;;;;1924851;74;21084;-43
2022/01/16 05:57:39;;;;;;;4.92;2.83;;;2.30;87.70;;;;;;1924805;74;21031;-44
2022/01/16 06:00:10;;;;;;;10.58;3.00;;;2.30;87.70;;;;;;1924723;74;21073;-43
2022/01/16 06:02:39;;;;;;;4.85;3.20;;;2.40;87.70;;;;;;1924838;74;21090;-43
2022/01/16 06:05:10;;;;;;;7.33;3.20;;;2.40;87.60;;;;;;1924914;74;21047;-43
2022/01/16 06:07:44;;;;;;;3.80;3.00;;;2.40;87.40;;;;;;1924697;74;21020;-43
2022/01/16 06:10:10;;;;;;;8.23;4.78;;;2.40;87.30;;;;;;1924213;74;21469;-43
2022/01/16 06:12:40;;;;;;;5.80;3.27;;;2.40;87.40;;;;;;1924673;74;21152;-43
2022/01/16 06:15:09;;;;;;;8.18;4.58;;;2.40;87.40;;;;;;1924744;74;21068;-43
2022/01/16 06:17:39;;;;;;;4.08;3.67;;;2.40;87.30;;;;;;1924852;74;21019;-43
2022/01/16 06:20:09;;;;;;;7.05;4.22;;;2.50;87.20;;;;;;1924799;74;21117;-43
2022/01/16 06:22:38;;;;;;;5.45;2.98;;;2.50;87.20;;;;;;1924870;74;21018;-44
2022/01/16 06:25:08;;;;;;;4.12;2.20;;;2.40;87.20;;;;;;1924752;74;21023;-44
2022/01/16 06:27:37;;;;;;;5.00;2.98;;;2.50;87.10;;;;;;1924710;74;21077;-43
2022/01/16 06:30:09;;;;;;;10.20;3.98;;;2.40;87.20;;;;;;1924699;74;21022;-43
2022/01/16 06:32:39;;;;;;;5.58;3.05;;;2.40;87.30;;;;;;1924820;74;21026;-43
2022/01/16 06:35:09;;;;;;;5.70;3.60;;;2.40;87.60;;;;;;1924681;74;20994;-43
2022/01/16 06:37:38;;;;;;;8.40;2.30;;;2.40;87.40;;;;;;1924701;74;21124;-43
2022/01/16 06:40:08;;;;;;;3.65;2.58;;;2.40;87.90;;;;;;1924742;74;21093;-44
2022/01/16 06:42:38;;;;;;;5.15;2.20;;;2.40;87.90;;;;;;1924722;74;21031;-42
2022/01/16 06:45:09;;;;;;;5.00;2.52;;;2.30;87.80;;;;;;1924721;74;21026;-42
2022/01/16 06:47:39;;;;;;;6.03;2.95;;;2.30;87.80;;;;;;1924707;74;21076;-43
2022/01/16 06:50:09;;;;;;;5.12;2.75;;;2.20;88.10;;;;;;1922557;74;21023;-42
2022/01/16 06:52:39;;;;;;;5.08;2.70;;;2.20;87.90;;;;;;1905320;75;21000;-42
2022/01/16 06:55:08;;;;;;;6.35;3.22;;;2.10;88.40;;;;;;1905315;75;21015;-42
2022/01/16 06:57:38;;;;;;;2.98;2.20;;;2.10;88.90;;;;;;1905285;75;21101;-42
2022/01/16 07:00:09;;;;;;;4.08;2.98;;;2.10;89.20;;;;;;1905330;75;21016;-43
2022/01/16 07:02:38;;;;;;;4.20;2.80;;;2.10;88.90;;;;;;1905264;75;21093;-43
2022/01/16 07:05:08;;;;;;;4.35;3.20;;;2.10;88.90;;;;;;1905388;75;21011;-43
2022/01/16 07:07:38;;;;;;;5.17;2.60;;;2.10;88.70;;;;;;1905267;75;21015;-43
2022/01/16 07:10:07;;;;;;;3.83;2.30;;;2.10;88.90;;;;;;1905298;75;21051;-42
2022/01/16 07:12:37;;;;;;;1.82;1.72;;;2.20;88.80;;;;;;1905270;75;21093;-42
2022/01/16 07:15:07;;;;;;;6.10;2.25;;;2.20;88.80;;;;;;1905200;75;21007;-42
2022/01/16 07:17:36;;;;;;;6.55;3.65;;;2.20;88.30;;;;;;1905380;75;21036;-42
2022/01/16 07:20:06;;;;;;;4.78;3.58;;;2.20;88.30;;;;;;1905186;75;21019;-42
2022/01/16 07:22:36;;;;;;;5.35;3.00;;;2.20;88.20;;;;;;1905290;75;21043;-42
2022/01/16 07:25:06;;;;;;;3.10;2.50;;;2.30;88.20;;;;;;1905354;75;21040;-42
2022/01/16 07:27:35;;;;;;;7.33;3.08;;;2.40;88.00;;;;;;1905245;75;21019;-43
2022/01/16 07:30:05;;;;;;;6.55;3.70;;;2.50;88.00;;;;;;1905273;75;21071;-43
2022/01/16 07:32:35;;;;;;;6.72;2.92;;;2.50;86.50;;;;;;1905198;75;21078;-42
2022/01/16 07:35:04;;;;;;;2.50;1.90;;;2.60;86.00;;;;;;1905143;75;21019;-42
2022/01/16 07:37:34;;;;;;;12.88;4.10;;;2.60;85.90;;;;;;1905263;75;21102;-44
2022/01/16 07:40:04;;;;;;;4.03;2.20;;;2.70;85.70;;;;;;1905109;75;21089;-43
2022/01/16 07:42:33;;;;;;;8.13;3.52;;;2.70;84.00;;;;;;1905419;75;21045;-42
2022/01/16 07:45:03;;;;;;;3.83;2.40;;;2.70;84.40;;;;;;1905323;74;21078;-44
2022/01/16 07:47:32;;;;;;;4.33;1.80;;;2.70;84.60;;;;;;1905282;75;21047;-42
2022/01/16 07:50:01;;;;;;;10.63;5.87;;;2.70;84.00;;;;;;1905328;75;21314;-42
2022/01/16 07:52:31;;;;;;;6.12;2.10;;;2.70;84.00;;;;;;1905309;74;21101;-42
2022/01/16 07:55:01;;;;;;;4.50;2.20;;;2.80;84.50;;;;;;1905261;75;21008;-42
2022/01/16 07:57:30;;;;;;;2.35;1.55;;;2.80;83.50;;;;;;1905296;75;21016;-42
2022/01/16 07:59:59;;;;;;;3.67;1.85;;;2.90;84.20;;;;;;1905164;74;20999;-43
2022/01/16 08:02:29;;;;;;;7.53;2.87;;;2.90;83.00;;;;;;1905285;75;21027;-42
2022/01/16 08:04:58;;;;;;;2.90;2.02;;;2.90;82.90;;;;;;1905158;74;21016;-42
2022/01/16 08:07:28;;;;;;;11.83;4.83;;;3.00;83.50;;;;;;1905214;75;21015;-43
2022/01/16 08:10:00;;;;;;;9.93;3.52;;;3.00;82.50;;;;;;1905209;75;20996;-43
2022/01/16 08:12:29;;;;;;;6.12;3.85;;;3.10;82.60;;;;;;1905326;75;21012;-42
2022/01/16 08:14:59;;;;;;;1.42;1.17;;;3.10;82.20;;;;;;1905194;75;21113;-43
2022/01/16 08:17:28;;;;;;;2.35;1.50;;;3.20;82.80;;;;;;1905306;75;21081;-42
2022/01/16 08:19:58;;;;;;;2.47;1.87;;;3.20;82.00;;;;;;1905220;75;21031;-42
2022/01/16 08:22:28;;;;;;;4.90;2.05;;;3.30;80.70;;;;;;1905186;75;21019;-43
2022/01/16 08:24:57;;;;;;;2.85;2.25;;;3.30;80.60;;;;;;1905202;75;21082;-43
2022/01/16 08:27:26;;;;;;;5.25;2.08;;;3.30;81.20;;;;;;1905206;75;21018;-42
2022/01/16 08:29:56;;;;;;;4.15;1.50;;;3.40;80.80;;;;;;1905146;74;21023;-43
2022/01/16 08:32:25;;;;;;;2.05;1.65;;;3.40;80.40;;;;;;1905233;75;21083;-42
2022/01/16 08:34:55;;;;;;;2.87;1.60;;;3.40;79.30;;;;;;1905166;75;21081;-43
2022/01/16 08:37:24;;;;;;;5.72;1.40;;;3.50;79.80;;;;;;1905131;75;21004;-42
2022/01/16 08:39:53;;;;;;;3.00;2.10;;;3.50;79.50;;;;;;1905117;75;21031;-42
2022/01/16 08:42:23;;;;;;;1.80;1.30;;;3.50;79.90;;;;;;1905251;75;21132;-42
2022/01/16 08:44:52;;;;;;;1.85;1.47;;;3.50;79.00;;;;;;1905258;75;21019;-42
2022/01/16 08:47:22;;;;;;;2.75;1.72;;;3.50;80.50;;;;;;1905459;74;21094;-42
2022/01/16 08:49:52;;;;;;;2.27;1.65;;;3.60;79.00;;;;;;1905326;74;21137;-42
2022/01/16 08:52:22;;;;;;;5.30;2.10;;;3.60;78.50;;;;;;1915247;74;21050;-42
2022/01/16 08:54:51;;;;;;;1.25;1.15;;;3.60;79.50;;;;;;1924694;74;21091;-42
2022/01/16 08:57:20;;;;;;;1.27;1.17;;;3.50;79.30;;;;;;1924799;74;21039;-42
2022/01/16 08:59:49;;;;;;;1.57;1.47;;;3.30;79.50;;;;;;1924673;74;21088;-43
2022/01/16 09:02:19;;;;;;;2.20;1.37;;;3.10;80.60;;;;;;1924828;74;21088;-42
2022/01/16 09:04:48;;;;;;;5.08;2.10;;;3.00;80.70;;;;;;1924686;74;21086;-42
2022/01/16 09:07:19;;;;;;;1.57;1.47;;;2.80;80.60;;;;;;1924843;74;21019;-42
2022/01/16 09:09:49;;;;;;;3.67;1.75;;;2.80;81.80;;;;;;1924856;74;21133;-42
2022/01/16 09:12:18;;;;;;;3.17;1.70;;;2.80;81.70;;;;;;1924792;74;21022;-43
2022/01/16 09:14:47;;;;;;;3.90;1.92;;;2.90;81.90;;;;;;1924742;74;20991;-43
2022/01/16 09:17:17;;;;;;;4.55;2.25;;;2.90;81.80;;;;;;1924769;74;21015;-42
2022/01/16 09:19:46;;;;;;;1.98;1.47;;;3.10;82.30;;;;;;1924619;74;21023;-42
2022/01/16 09:22:16;;;;;;;4.33;1.75;;;3.20;83.10;;;;;;1924660;74;21026;-42
2022/01/16 09:24:45;;;;;;;1.82;1.52;;;3.30;79.30;;;;;;1924672;74;21080;-44
2022/01/16 09:27:15;;;;;;;3.92;2.12;;;3.40;80.60;;;;;;1924711;74;21015;-44
2022/01/16 09:29:44;;;;;;;3.08;2.15;;;3.40;80.70;;;;;;1924692;74;21068;-43
2022/01/16 09:32:14;;;;;;;1.07;0.98;;;3.30;80.30;;;;;;1924799;74;21031;-43
2022/01/16 09:34:43;;;;;;;1.10;1.00;;;3.10;80.40;;;;;;1924780;74;21066;-43
2022/01/16 09:37:13;;;;;;;1.15;0.98;;;3.00;78.30;;;;;;1924687;74;21023;-43
2022/01/16 09:39:42;;;;;;;2.22;1.27;;;2.90;78.80;;;;;;1924634;74;21018;-44
2022/01/16 09:42:11;;;;;;;1.72;1.20;;;2.80;79.30;;;;;;1924675;74;21062;-42
2022/01/16 09:44:41;;;;;;;3.77;1.25;;;2.80;80.00;;;;;;1924781;74;21140;-45
2022/01/16 09:47:11;;;;;;;1.72;1.32;;;2.70;80.30;;;;;;1924764;74;21081;-42
2022/01/16 09:49:41;;;;;;;5.17;1.17;;;2.70;80.60;;;;;;1924777;74;21068;-42
2022/01/16 09:52:11;;;;;;;1.50;1.40;;;2.70;81.10;;;;;;1924781;74;21120;-42
2022/01/16 09:54:41;;;;;;;1.45;1.10;;;2.60;79.60;;;;;;1924883;74;20991;-42
2022/01/16 09:57:12;;;;;;;1.00;0.95;;;2.60;80.00;;;;;;1924845;74;21015;-44
2022/01/16 09:59:41;;;;;;;0.93;0.93;;;2.60;77.60;;;;;;1924682;74;21014;-43
2022/01/16 10:02:11;;;;;;;9.48;2.72;;;2.50;78.40;;;;;;1924965;74;21022;-43
2022/01/16 10:04:43;;;;;;;12.88;4.10;;;2.60;78.60;;;;;;1924606;74;21039;-42
2022/01/16 10:07:14;;;;;;;16.93;7.35;;;2.70;78.70;;;;;;1924726;74;21054;-44
2022/01/16 10:09:46;;;;;;;10.35;6.72;;;2.80;79.10;;;;;;1924620;74;21058;-44
2022/01/16 10:12:19;;;;;;;16.20;5.72;;;3.00;78.10;;;;;;1924655;74;20991;-42
2022/01/16 10:14:51;;;;;;;3.05;1.98;;;3.10;75.70;;;;;;1924676;74;21485;-42
2022/01/16 10:17:22;;;;;;;5.30;1.95;;;3.10;70.50;;;;;;1924638;74;21030;-43
2022/01/16 10:20:03;;;;;;;5.45;3.20;;;3.20;73.40;;;;;;1924649;74;21011;-44
2022/01/16 10:22:42;;;;;;;1.70;1.47;;;3.20;74.20;;;;;;1924729;74;21477;-42
2022/01/16 10:25:13;;;;;;;1.40;1.07;;;3.20;69.30;;;;;;1920674;74;21462;-42
2022/01/16 10:27:44;;;;;;;2.47;1.95;;;3.10;69.30;;;;;;1924760;74;21096;-42
2022/01/16 10:30:18;;;;;;;1.05;0.93;;;3.10;70.10;;;;;;1924676;74;21077;-43
2022/01/16 10:32:47;;;;;;;0.68;0.60;;;3.10;67.40;;;;;;1924630;74;21023;-42
2022/01/16 10:35:20;;;;;;;2.30;1.10;;;3.10;67.30;;;;;;1924663;74;21018;-42
2022/01/16 10:37:54;;;;;;;6.58;1.87;;;3.20;67.70;;;;;;1924565;74;20995;-42
2022/01/16 10:40:26;;;;;;;;;;;3.30;66.20;;;;;;1927580;74;21015;-43
2022/01/16 10:43:04;;;;;;;6.62;1.98;;;3.30;62.70;;;;;;1924604;74;20134;-42
2022/01/16 10:45:31;;;;;;;1.17;0.90;;;3.30;64.40;;;;;;1924271;74;21178;-42
2022/01/16 10:48:02;;;;;;;1.22;0.68;;;3.30;67.80;;;;;;1924804;74;21018;-43
2022/01/16 10:50:36;;;;;;;0.72;0.70;;;3.30;69.30;;;;;;1924678;74;21045;-43
2022/01/16 10:53:13;;;;;;;1.00;0.88;;;3.20;68.20;;;;;;1918786;74;21027;-42
2022/01/16 10:55:51;;;;;;;0.72;0.60;;;3.10;68.60;;;;;;1905291;75;21103;-43
2022/01/16 10:58:28;;;;;;;1.85;0.68;;;3.10;69.00;;;;;;1905199;75;21061;-42
2022/01/16 11:01:06;;;;;;;0.60;0.53;;;3.10;65.00;;;;;;1905353;75;21007;-42
2022/01/16 11:03:58;;;;;;;1.70;1.12;;;3.10;66.80;;;;;;1905118;74;21032;-42
2022/01/16 11:06:24;;;;;;;1.57;0.93;;;3.20;67.40;;;;;;1904870;74;21007;-42
2022/01/16 11:08:57;;;;;;;1.85;0.88;;;3.20;67.20;;;;;;1905157;74;21069;-43
2022/01/16 11:11:27;;;;;;;1.00;0.90;;;3.20;65.90;;;;;;1905278;75;20983;-42
2022/01/16 11:14:00;;;;;;;4.75;2.70;;;3.30;67.20;;;;;;1905231;75;21093;-43
2022/01/16 11:16:28;;;;;;;2.37;1.22;;;3.30;67.20;;;;;;1905376;74;21023;-43
2022/01/16 11:18:58;;;;;;;3.77;1.42;;;3.30;65.80;;;;;;1905090;75;21066;-43
2022/01/16 11:21:41;;;;;;;2.08;1.22;;;3.20;61.20;;;;;;1905222;74;21016;-43
2022/01/16 11:24:24;;;;;;;2.45;2.00;;;3.20;61.80;;;;;;1902984;74;21076;-42
2022/01/16 11:26:33;;;;;;;2.17;1.00;;;3.20;59.90;;;;;;1903467;75;21051;-42
2022/01/16 11:29:02;;;;;;;0.75;0.75;;;3.20;61.50;;;;;;1905321;75;21020;-43
2022/01/16 11:31:31;;;;;;;3.45;1.95;;;3.10;60.60;;;;;;1905276;75;21075;-42
2022/01/16 11:34:01;;;;;;;9.40;4.25;;;3.00;61.80;;;;;;1905214;75;21023;-43
2022/01/16 11:36:31;;;;;;;16.73;5.42;;;3.00;63.50;;;;;;1905278;75;21039;-43
2022/01/16 11:39:08;;;;;;;9.43;3.90;;;3.00;64.50;;;;;;1905308;75;21024;-42
2022/01/16 11:41:53;;;;;;;7.25;3.10;;;2.90;65.00;;;;;;1905222;75;20999;-42
2022/01/16 11:44:27;;;;;;;4.35;2.90;;;2.90;63.60;;;;;;1905209;75;21712;-42
2022/01/16 11:46:58;;;;;;;4.55;2.72;;;2.90;64.20;;;;;;1905311;75;21039;-43
2022/01/16 11:49:36;;;;;;;2.62;1.85;;;3.00;62.50;;;;;;1905218;75;21078;-43
2022/01/16 11:52:14;;;;;;;1.67;1.57;;;3.10;64.10;;;;;;1905216;75;21117;-42
2022/01/16 11:54:46;;;;;;;3.75;2.42;;;3.20;63.70;;;;;;1904487;74;21134;-43
2022/01/16 11:57:29;;;;;;;4.25;2.27;;;3.30;63.80;;;;;;1904740;74;21494;-43
2022/01/16 12:00:10;;;;;;;4.00;2.15;;;3.30;62.70;;;;;;1905224;75;21078;-42
2022/01/16 12:02:53;;;;;;;2.92;1.40;;;3.30;58.70;;;;;;1905403;74;21459;-46
2022/01/16 12:05:26;;;;;;;0.60;0.60;;;3.30;61.30;;;;;;1903653;74;21039;-42
2022/01/16 12:07:58;;;;;;;1.32;0.70;;;3.20;60.20;;;;;;1904409;74;21477;-42
2022/01/16 12:10:44;;;;;;;1.05;0.88;;;3.20;59.80;;;;;;1905361;75;21020;-43
2022/01/16 12:13:53;;;;;;;3.45;1.67;;;3.20;60.60;;;;;;1905265;75;21016;-43
2022/01/16 12:16:43;;;;;;;1.22;1.12;;;3.20;60.30;;;;;;1905483;75;21011;-42
2022/01/16 12:19:36;;;;;;;7.58;3.30;;;3.10;61.10;;;;;;1905337;75;21023;-42
2022/01/16 12:22:07;;;;;;;3.40;1.87;;;3.10;60.80;;;;;;1905353;75;21019;-44
2022/01/16 12:24:43;;;;;;;0.72;0.70;;;3.10;60.90;;;;;;1905344;75;21105;-43
2022/01/16 12:27:30;;;;;;;4.42;0.70;;;3.10;62.50;;;;;;1905427;75;21069;-43
2022/01/16 12:30:20;;;;;;;0.82;0.75;;;3.10;62.40;;;;;;1905395;75;21435;-43
2022/01/16 12:32:52;;;;;;;0.65;0.65;;;3.10;62.00;;;;;;1905282;75;21119;-42
2022/01/16 12:35:41;;;;;;;1.45;0.85;;;3.10;61.40;;;;;;1905279;74;21023;-43
2022/01/16 12:38:12;;;;;;;2.72;1.00;;;3.10;61.90;;;;;;1905404;75;21055;-43
2022/01/16 12:40:44;;;;;;;1.05;0.85;;;3.00;62.30;;;;;;1905291;75;21015;-42
2022/01/16 12:43:26;;;;;;;1.47;1.17;;;3.00;63.50;;;;;;1905266;75;21535;-43
2022/01/16 12:45:45;;;;;;;2.08;0.80;;;3.00;64.40;;;;;;1903480;74;21116;-42
2022/01/16 12:48:16;;;;;;;6.00;2.98;;;3.00;64.40;;;;;;1905250;75;21082;-42
2022/01/16 12:50:46;;;;;;;3.70;2.83;;;3.00;64.50;;;;;;1905134;75;21035;-44
2022/01/16 12:53:17;;;;;;;1.55;1.30;;;3.00;64.80;;;;;;1905095;75;21027;-43
2022/01/16 12:55:46;;;;;;;0.50;0.50;;;3.00;64.30;;;;;;1903949;74;21059;-42
2022/01/16 12:58:20;;;;;;;1.82;0.90;;;3.00;63.20;;;;;;1905264;74;21051;-42
2022/01/16 13:01:04;;;;;;;0.50;0.50;;;3.00;65.00;;;;;;1905360;74;21473;-43
2022/01/16 13:03:35;;;;;;;1.47;1.10;;;3.00;64.80;;;;;;1905336;75;21114;-44
2022/01/16 13:06:32;;;;;;;1.30;1.20;;;3.00;66.70;;;;;;1905227;75;21369;-42
2022/01/16 13:09:11;;;;;;;1.40;1.00;;;3.00;66.60;;;;;;1905350;75;21120;-42
2022/01/16 13:11:43;;;;;;;3.02;1.98;;;3.00;66.90;;;;;;1905310;74;21020;-43
2022/01/16 13:14:18;;;;;;;2.47;2.02;;;3.10;66.90;;;;;;1905197;74;21081;-43
2022/01/16 13:16:51;;;;;;;2.30;1.87;;;3.00;67.10;;;;;;1905419;75;20987;-43
2022/01/16 13:19:27;;;;;;;1.00;0.82;;;3.00;66.90;;;;;;1905263;74;20995;-44
2022/01/16 13:22:04;;;;;;;1.55;1.40;;;3.00;67.10;;;;;;1904894;74;20992;-43
2022/01/16 13:24:32;;;;;;;2.20;0.85;;;3.00;67.30;;;;;;1904933;74;21031;-42
2022/01/16 13:27:04;;;;;;;1.10;1.00;;;2.90;67.00;;;;;;1905398;75;21140;-43
2022/01/16 13:29:35;;;;;;;1.32;0.90;;;2.90;67.50;;;;;;1905392;75;21454;-42
2022/01/16 13:32:05;;;;;;;1.00;0.90;;;2.90;67.80;;;;;;1905269;75;21450;-42
2022/01/16 13:34:37;;;;;;;0.70;0.70;;;2.90;67.70;;;;;;1905361;75;21039;-42
2022/01/16 13:37:09;;;;;;;2.47;0.98;;;2.90;67.70;;;;;;1905301;75;21085;-42
2022/01/16 13:39:50;;;;;;;1.27;1.05;;;2.80;68.30;;;;;;1905412;75;21023;-43
2022/01/16 13:42:28;;;;;;;2.05;1.10;;;2.80;68.60;;;;;;1905375;75;21081;-42
2022/01/16 13:44:52;;;;;;;1.40;1.30;;;2.70;68.70;;;;;;1904693;74;21036;-42
2022/01/16 13:47:23;;;;;;;3.95;1.80;;;2.70;69.30;;;;;;1905319;75;21036;-41
2022/01/16 13:49:53;;;;;;;1.85;1.47;;;2.60;69.80;;;;;;1905382;75;21020;-42
2022/01/16 13:52:26;;;;;;;3.30;1.77;;;2.60;70.00;;;;;;1905355;75;21023;-43
2022/01/16 13:55:07;;;;;;;2.58;1.37;;;2.60;70.30;;;;;;1905370;74;21116;-42